createdAt,value
2022-08-25T13:35:08.904Z,42.30
2022-08-25T13:47:13.818Z,40.40
2022-08-25T13:49:46.314Z,40.00
2022-08-25T13:52:29.245Z,39.70
2022-08-25T13:55:05.054Z,39.30
2022-08-25T14:00:18.229Z,39.50
2022-08-25T14:05:40.692Z,40.20
2022-08-25T14:08:35.542Z,40.50
2022-08-25T14:13:58.450Z,40.50
2022-08-25T14:16:25.734Z,40.40
2022-08-25T14:18:59.474Z,40.40
2022-08-25T14:21:32.460Z,40.40
2022-08-25T14:26:58.294Z,40.40
2022-08-25T14:29:25.281Z,40.30
2022-08-25T14:31:52.627Z,40.20
2022-08-25T14:34:28.729Z,39.90
2022-08-25T14:39:36.540Z,39.30
2022-08-25T14:42:13.391Z,39.00
2022-08-25T14:44:50.750Z,38.90
2022-08-25T14:49:51.330Z,38.40
2022-08-25T14:52:30.699Z,38.10
2022-08-25T14:55:06.143Z,38.00
2022-08-25T14:57:34.270Z,35.30
2022-08-25T15:00:04.740Z,37.80
2022-08-25T15:02:37.990Z,37.70
2022-08-25T15:05:13.378Z,37.50
2022-08-25T15:08:10.351Z,37.50
2022-08-25T15:11:11.047Z,37.40
2022-08-25T15:13:41.742Z,37.20
2022-08-25T15:16:14.724Z,37.00
2022-08-25T15:19:00.915Z,36.90
2022-08-25T15:21:40.526Z,36.80
2022-08-25T15:24:10.411Z,36.60
2022-08-25T15:26:45.272Z,36.60
2022-08-25T15:29:19.137Z,36.50
2022-08-25T15:31:58.784Z,36.40
2022-08-25T15:37:17.498Z,36.30
2022-08-25T15:39:47.111Z,36.20
2022-08-25T15:42:26.254Z,36.10
2022-08-25T15:44:53.907Z,36.10
2022-08-25T15:50:08.866Z,36.00
2022-08-25T15:52:47.427Z,36.00
2022-08-25T15:55:19.972Z,35.90
2022-08-25T15:57:54.699Z,35.80
2022-08-25T16:00:22.003Z,35.90
2022-08-25T16:02:54.422Z,35.80
2022-08-25T16:05:25.629Z,35.80
2022-08-25T16:08:01.559Z,35.70
2022-08-25T16:10:46.881Z,35.70
2022-08-25T16:13:22.489Z,35.70
2022-08-25T16:16:04.164Z,35.70
2022-08-25T16:18:31.041Z,35.70
2022-08-25T16:21:25.752Z,35.60
2022-08-25T16:24:10.700Z,35.60
2022-08-25T16:26:48.551Z,35.50
2022-08-25T16:29:23.473Z,35.40
2022-08-25T16:31:58.903Z,35.40
2022-08-25T16:34:31.769Z,35.40
2022-08-25T16:37:01.456Z,35.30
2022-08-25T16:39:28.332Z,35.30
2022-08-25T16:42:02.723Z,35.30
2022-08-25T16:44:39.959Z,35.10
2022-08-25T16:47:14.131Z,35.10
2022-08-25T16:52:40.676Z,34.90
2022-08-25T16:55:13.789Z,35.00
2022-08-25T16:58:13.488Z,34.90
2022-08-25T17:00:40.933Z,34.90
2022-08-25T17:03:17.567Z,34.70
2022-08-25T17:05:51.566Z,34.70
2022-08-25T17:08:30.489Z,34.30
2022-08-25T17:11:21.479Z,34.70
2022-08-25T17:13:52.037Z,34.50
2022-08-25T17:18:48.009Z,34.40
2022-08-25T17:23:53.056Z,34.10
2022-08-25T17:26:27.930Z,34.10
2022-08-25T17:28:56.857Z,34.00
2022-08-25T17:31:27.094Z,33.80
2022-08-25T17:33:58.306Z,33.70
2022-08-25T17:36:27.624Z,33.60
2022-08-25T17:38:59.688Z,33.50
2022-08-25T17:41:26.562Z,33.40
2022-08-25T17:43:53.370Z,33.30
2022-08-25T17:46:20.918Z,33.20
2022-08-25T17:48:50.359Z,33.10
2022-08-25T17:51:34.029Z,32.90
2022-08-25T17:54:01.070Z,32.90
2022-08-25T17:56:31.726Z,32.80
2022-08-25T17:58:58.540Z,32.60
2022-08-25T18:01:57.796Z,32.40
2022-08-25T18:04:29.560Z,32.30
2022-08-25T18:09:34.535Z,32.00
2022-08-25T18:14:39.526Z,31.70
2022-08-25T18:17:11.667Z,31.70
2022-08-25T18:19:46.733Z,31.50
2022-08-25T18:22:13.680Z,31.50
2022-08-25T18:24:43.078Z,31.30
2022-08-25T18:27:11.975Z,31.20
2022-08-25T18:29:41.179Z,31.00
2022-08-25T18:32:09.629Z,30.90
2022-08-25T18:34:41.221Z,30.90
2022-08-25T18:37:15.006Z,30.70
2022-08-25T18:40:02.061Z,30.60
2022-08-25T18:42:29.777Z,30.50
2022-08-25T18:45:12.489Z,30.50
2022-08-25T18:47:44.466Z,30.30
2022-08-25T18:50:13.748Z,30.20
2022-08-25T18:52:43.865Z,30.10
2022-08-25T18:55:13.258Z,30.00
2022-08-25T19:00:20.429Z,29.80
2022-08-25T19:02:49.198Z,29.70
2022-08-25T19:05:17.489Z,29.70
2022-08-25T19:07:45.694Z,29.60
2022-08-25T19:10:20.114Z,29.50
2022-08-25T19:12:57.063Z,29.40
2022-08-25T19:15:27.476Z,29.30
2022-08-25T19:17:56.762Z,29.20
